createdAt,value
2019-02-18T00:00:14.781Z,17.87
2019-02-18T00:02:43.767Z,19.87
2019-02-18T00:05:12.644Z,20.68
2019-02-18T00:07:41.589Z,18.92
2019-02-18T00:10:10.857Z,19.65
2019-02-18T00:12:40.175Z,21.12
2019-02-18T00:15:09.161Z,20.85
2019-02-18T00:17:38.059Z,20.27
2019-02-18T00:20:07.033Z,19.90
2019-02-18T00:22:35.945Z,17.45
2019-02-18T00:25:04.963Z,20.97
2019-02-18T00:27:33.916Z,18.85
2019-02-18T00:30:02.742Z,20.30
2019-02-18T00:32:31.574Z,18.52
2019-02-18T00:35:00.400Z,19.70
2019-02-18T00:37:29.220Z,21.50
2019-02-18T00:39:58.120Z,19.32
2019-02-18T00:42:27.100Z,27.17
2019-02-18T00:44:56.032Z,20.68
2019-02-18T00:47:25.044Z,20.12
2019-02-18T00:49:53.849Z,17.95
2019-02-18T00:52:22.760Z,19.23
2019-02-18T00:54:51.749Z,20.72
2019-02-18T00:57:20.660Z,18.10
2019-02-18T00:59:49.476Z,18.48
2019-02-18T01:02:18.565Z,17.65
2019-02-18T01:04:47.948Z,18.17
2019-02-18T01:07:16.968Z,17.27
2019-02-18T01:09:46.194Z,18.75
2019-02-18T01:12:15.183Z,17.85
2019-02-18T01:14:44.100Z,18.73
2019-02-18T01:17:13.092Z,17.25
2019-02-18T01:19:41.996Z,19.07
2019-02-18T01:22:10.933Z,18.02
2019-02-18T01:24:39.872Z,17.87
2019-02-18T01:27:08.871Z,17.55
2019-02-18T01:29:37.741Z,17.95
2019-02-18T01:32:06.606Z,17.40
2019-02-18T01:34:35.554Z,17.42
2019-02-18T01:37:04.489Z,16.30
2019-02-18T01:39:33.604Z,18.07
2019-02-18T01:42:02.583Z,15.43
2019-02-18T01:44:31.585Z,15.95
2019-02-18T01:47:00.380Z,17.00
2019-02-18T01:49:29.166Z,17.27
2019-02-18T01:51:58.139Z,17.80
2019-02-18T01:54:27.181Z,15.68
2019-02-18T01:56:56.246Z,18.30
2019-02-18T01:59:25.633Z,17.05
2019-02-18T02:01:54.540Z,16.67
2019-02-18T02:04:23.524Z,17.42
2019-02-18T02:06:52.520Z,17.35
2019-02-18T02:09:21.312Z,19.57
2019-02-18T02:11:50.192Z,16.48
2019-02-18T02:14:19.120Z,14.68
2019-02-18T02:16:48.121Z,15.80
2019-02-18T02:19:17.056Z,15.43
2019-02-18T02:21:45.968Z,16.50
2019-02-18T02:24:14.868Z,15.53
2019-02-18T02:26:43.904Z,16.42
2019-02-18T02:29:12.814Z,18.62
2019-02-18T02:31:41.625Z,15.28
2019-02-18T02:34:10.445Z,18.75
2019-02-18T02:36:39.324Z,16.45
2019-02-18T02:39:08.707Z,16.32
2019-02-18T02:41:37.515Z,15.55
2019-02-18T02:44:06.492Z,16.82
2019-02-18T02:46:35.393Z,14.15
2019-02-18T02:49:04.402Z,17.55
2019-02-18T02:51:33.214Z,16.65
2019-02-18T02:54:02.155Z,15.65
2019-02-18T02:56:31.040Z,16.75
2019-02-18T02:58:59.874Z,16.67
2019-02-18T03:01:28.686Z,15.90
2019-02-18T03:03:57.484Z,15.32
2019-02-18T03:06:26.303Z,18.27
2019-02-18T03:08:55.225Z,14.75
2019-02-18T03:11:24.144Z,15.18
2019-02-18T03:13:52.933Z,15.43
2019-02-18T03:16:21.779Z,15.78
2019-02-18T03:18:50.813Z,15.13
2019-02-18T03:21:19.623Z,14.93
2019-02-18T03:23:48.473Z,14.85
2019-02-18T03:26:26.351Z,14.68
2019-02-18T03:29:20.719Z,15.10
2019-02-18T03:31:49.661Z,16.10
2019-02-18T03:34:42.013Z,14.10
2019-02-18T03:37:10.820Z,15.38
2019-02-18T03:39:39.654Z,14.50
2019-02-18T03:42:08.649Z,14.95
2019-02-18T03:44:37.620Z,15.00
2019-02-18T03:47:06.501Z,15.72
2019-02-18T03:49:35.596Z,14.35
2019-02-18T03:52:04.587Z,15.90
2019-02-18T03:54:33.368Z,15.30
2019-02-18T03:57:02.292Z,16.00
2019-02-18T03:59:31.336Z,14.95
2019-02-18T04:02:00.232Z,16.10
2019-02-18T04:04:29.140Z,16.23
2019-02-18T04:06:58.040Z,17.23
2019-02-18T04:09:26.833Z,15.13
2019-02-18T04:11:55.843Z,15.23
2019-02-18T04:14:24.831Z,18.55
2019-02-18T04:16:53.640Z,15.25
2019-02-18T04:19:22.444Z,17.35
2019-02-18T04:21:51.346Z,16.00
2019-02-18T04:24:20.333Z,17.30
2019-02-18T04:26:49.120Z,16.97
2019-02-18T04:29:17.932Z,17.48
2019-02-18T04:31:47.120Z,17.20
2019-02-18T04:34:16.132Z,17.05
2019-02-18T04:36:44.917Z,18.48
2019-02-18T04:39:13.717Z,20.00
2019-02-18T04:41:42.568Z,28.05
2019-02-18T04:44:11.485Z,20.20
2019-02-18T04:46:40.324Z,20.20
2019-02-18T04:49:09.105Z,23.38
2019-02-18T04:51:38.022Z,19.98
2019-02-18T04:54:06.859Z,18.65
2019-02-18T04:56:35.762Z,17.48
2019-02-18T04:59:04.657Z,16.70
2019-02-18T05:01:33.634Z,17.37
2019-02-18T05:04:02.552Z,16.60
2019-02-18T05:06:31.459Z,15.75
2019-02-18T05:09:05.427Z,17.80
2019-02-18T05:11:30.891Z,15.30
2019-02-18T05:13:59.840Z,15.80
2019-02-18T05:16:28.742Z,15.15
2019-02-18T05:18:57.746Z,14.45
2019-02-18T05:21:26.577Z,17.05
2019-02-18T05:23:55.352Z,16.55
2019-02-18T05:26:24.248Z,13.90
2019-02-18T05:28:53.084Z,12.55
2019-02-18T05:31:21.993Z,15.55
2019-02-18T05:33:50.895Z,13.93
2019-02-18T05:36:19.818Z,15.30
2019-02-18T05:38:48.743Z,14.18
2019-02-18T05:41:17.689Z,17.00
2019-02-18T05:43:46.589Z,16.65
2019-02-18T05:46:15.374Z,14.63
2019-02-18T05:48:44.435Z,15.05
2019-02-18T05:51:13.393Z,15.00
2019-02-18T05:53:42.372Z,15.45
2019-02-18T05:56:11.185Z,15.65
2019-02-18T05:58:40.100Z,13.50
2019-02-18T06:01:08.979Z,13.70
2019-02-18T06:03:37.756Z,14.68
2019-02-18T06:06:06.612Z,14.15
2019-02-18T06:08:35.848Z,13.62
2019-02-18T06:11:04.802Z,12.75
2019-02-18T06:13:33.763Z,13.55
2019-02-18T06:16:02.605Z,13.95
2019-02-18T06:18:31.496Z,13.78
2019-02-18T06:21:00.324Z,15.78
2019-02-18T06:23:29.472Z,13.50
2019-02-18T06:25:58.291Z,14.10
2019-02-18T06:28:27.337Z,13.72
2019-02-18T06:30:56.113Z,14.25
2019-02-18T06:33:25.095Z,13.08
2019-02-18T06:35:53.868Z,14.70
2019-02-18T06:38:22.788Z,13.98
2019-02-18T06:40:51.629Z,14.15
2019-02-18T06:43:20.588Z,14.40
2019-02-18T06:45:59.656Z,16.15
2019-02-18T06:48:31.496Z,15.95
2019-02-18T06:51:00.364Z,12.58
2019-02-18T06:53:29.344Z,15.00
2019-02-18T06:55:58.368Z,14.58
2019-02-18T06:58:55.600Z,14.90
2019-02-18T07:01:52.728Z,13.83
2019-02-18T07:04:43.524Z,14.83
2019-02-18T07:07:37.283Z,15.30
2019-02-18T07:10:17.563Z,15.40
2019-02-18T07:12:49.636Z,14.98
2019-02-18T07:15:18.601Z,15.60
2019-02-18T07:17:47.468Z,16.85
2019-02-18T07:20:16.341Z,15.83
2019-02-18T07:22:45.256Z,15.95
2019-02-18T07:25:14.328Z,15.60
2019-02-18T07:27:43.240Z,15.45
2019-02-18T07:30:16.472Z,16.05
2019-02-18T07:32:45.502Z,15.63
2019-02-18T07:35:14.309Z,15.63
2019-02-18T07:37:43.264Z,16.57
2019-02-18T07:40:12.280Z,15.45
2019-02-18T07:42:41.085Z,15.78
2019-02-18T07:45:10.364Z,15.10
2019-02-18T07:47:39.240Z,14.63
2019-02-18T07:50:09.021Z,16.95
2019-02-18T07:52:37.920Z,16.37
2019-02-18T07:55:07.505Z,16.17
2019-02-18T07:57:36.488Z,16.65
2019-02-18T08:00:06.689Z,19.25
2019-02-18T08:02:35.479Z,19.30
2019-02-18T08:05:05.105Z,20.25
2019-02-18T08:07:34.012Z,21.05
2019-02-18T08:10:11.838Z,22.80
2019-02-18T08:12:33.548Z,22.10
2019-02-18T08:15:02.344Z,21.05
2019-02-18T08:17:31.136Z,18.60
2019-02-18T08:20:00.023Z,20.40
2019-02-18T08:22:28.826Z,21.27
2019-02-18T08:24:57.703Z,19.10
2019-02-18T08:27:26.615Z,18.40
2019-02-18T08:29:55.393Z,19.20
2019-02-18T08:32:24.352Z,19.45
2019-02-18T08:34:53.504Z,18.95
2019-02-18T08:37:22.373Z,19.17
2019-02-18T08:39:51.457Z,17.00
2019-02-18T08:42:20.377Z,19.65
2019-02-18T08:44:49.284Z,18.62
2019-02-18T08:47:18.175Z,18.15
2019-02-18T08:49:47.447Z,19.62
2019-02-18T08:52:16.444Z,19.62
2019-02-18T08:54:45.421Z,19.50
2019-02-18T08:57:14.285Z,20.62
2019-02-18T08:59:43.124Z,19.07
2019-02-18T09:02:12.136Z,18.92
2019-02-18T09:04:40.969Z,18.07
2019-02-18T09:07:09.992Z,18.73
2019-02-18T09:09:39.044Z,19.53
2019-02-18T09:12:07.854Z,19.73
2019-02-18T09:14:36.880Z,18.50
2019-02-18T09:17:05.776Z,19.57
2019-02-18T09:19:34.751Z,19.27
2019-02-18T09:22:21.504Z,19.12
2019-02-18T09:25:02.856Z,19.60
2019-02-18T09:27:32.103Z,19.62
2019-02-18T09:30:01.004Z,17.97
2019-02-18T09:32:29.876Z,19.07
2019-02-18T09:35:01.867Z,18.30
2019-02-18T09:37:30.085Z,18.45
2019-02-18T09:39:58.957Z,19.00
2019-02-18T09:42:27.832Z,19.20
2019-02-18T09:44:56.836Z,18.70
2019-02-18T09:47:26.013Z,18.93
2019-02-18T09:49:54.946Z,20.00
2019-02-18T09:52:23.761Z,18.17
2019-02-18T09:54:52.648Z,18.73
2019-02-18T09:57:21.481Z,19.10
2019-02-18T09:59:50.472Z,19.53
2019-02-18T10:02:19.365Z,19.57
2019-02-18T10:04:48.188Z,19.17
2019-02-18T10:07:17.004Z,19.70
2019-02-18T10:09:46.297Z,20.07
2019-02-18T10:12:18.373Z,19.90
2019-02-18T10:14:45.765Z,19.80
2019-02-18T10:17:14.608Z,18.63
2019-02-18T10:19:43.404Z,19.87
2019-02-18T10:22:12.383Z,19.73
2019-02-18T10:24:50.696Z,21.20
2019-02-18T10:27:11.957Z,20.10
2019-02-18T10:29:40.858Z,18.33
2019-02-18T10:32:09.992Z,19.33
2019-02-18T10:34:38.840Z,19.97
2019-02-18T10:37:07.944Z,20.70
2019-02-18T10:39:36.837Z,16.67
2019-02-18T10:42:05.701Z,17.97
2019-02-18T10:44:34.580Z,18.20
2019-02-18T10:47:03.594Z,18.67
2019-02-18T10:49:32.993Z,19.37
2019-02-18T10:52:01.904Z,19.70
2019-02-18T10:54:30.832Z,18.63
2019-02-18T10:56:59.737Z,18.90
2019-02-18T10:59:28.525Z,18.60
2019-02-18T11:01:57.400Z,18.07
2019-02-18T11:04:26.184Z,16.60
2019-02-18T11:06:54.965Z,17.07
2019-02-18T11:09:23.973Z,16.90
2019-02-18T11:11:52.792Z,17.10
2019-02-18T11:14:22.226Z,17.57
2019-02-18T11:16:51.151Z,17.23
2019-02-18T11:19:20.172Z,17.23
2019-02-18T11:21:48.964Z,15.70
2019-02-18T11:24:17.761Z,14.97
2019-02-18T11:26:46.563Z,15.00
2019-02-18T11:29:15.435Z,16.20
2019-02-18T11:31:44.436Z,14.40
2019-02-18T11:34:13.232Z,17.93
2019-02-18T11:36:42.146Z,15.30
2019-02-18T11:39:12.740Z,13.63
2019-02-18T11:41:42.233Z,14.20
2019-02-18T11:44:11.217Z,14.83
2019-02-18T11:46:40.005Z,16.10
2019-02-18T11:49:08.962Z,14.47
2019-02-18T11:51:37.744Z,17.23
2019-02-18T11:54:06.676Z,13.17
2019-02-18T11:56:35.851Z,14.70
2019-02-18T11:59:04.733Z,13.70
2019-02-18T12:01:33.616Z,14.77
2019-02-18T12:04:02.499Z,16.13
2019-02-18T12:06:31.396Z,14.60
2019-02-18T12:09:00.219Z,14.30
2019-02-18T12:11:37.779Z,14.60
2019-02-18T12:14:00.053Z,13.40
2019-02-18T12:16:28.824Z,13.83
2019-02-18T12:18:57.827Z,12.33
2019-02-18T12:21:26.755Z,12.90
2019-02-18T12:23:55.672Z,15.60
2019-02-18T12:26:24.572Z,12.20
2019-02-18T12:28:53.673Z,12.30
2019-02-18T12:31:22.575Z,13.40
2019-02-18T12:33:52.133Z,12.30
2019-02-18T12:36:21.182Z,12.63
2019-02-18T12:38:49.985Z,12.67
2019-02-18T12:41:18.794Z,12.23
2019-02-18T12:43:47.676Z,10.30
2019-02-18T12:46:16.788Z,11.00
2019-02-18T12:48:45.661Z,9.80
2019-02-18T12:51:14.593Z,10.10
2019-02-18T12:53:45.541Z,10.37
2019-02-18T12:56:14.352Z,10.53
2019-02-18T12:58:54.286Z,10.27
2019-02-18T13:01:14.469Z,10.17
2019-02-18T13:03:43.308Z,9.47
2019-02-18T13:06:12.672Z,9.00
2019-02-18T13:08:41.576Z,9.13
2019-02-18T13:11:10.632Z,7.53
2019-02-18T13:13:39.720Z,9.80
2019-02-18T13:16:08.761Z,9.27
2019-02-18T13:18:37.757Z,9.87
2019-02-18T13:21:06.783Z,8.97
2019-02-18T13:23:35.649Z,8.23
2019-02-18T13:26:04.538Z,8.77
2019-02-18T13:28:33.401Z,8.50
2019-02-18T13:31:02.272Z,8.10
2019-02-18T13:33:31.663Z,8.73
2019-02-18T13:36:00.463Z,9.43
2019-02-18T13:38:29.456Z,10.20
2019-02-18T13:40:58.236Z,9.57
2019-02-18T13:43:27.140Z,9.13
2019-02-18T13:45:56.660Z,9.97
2019-02-18T13:48:25.576Z,9.40
2019-02-18T13:50:54.537Z,7.97
2019-02-18T13:53:23.433Z,7.60
2019-02-18T13:55:52.409Z,7.93
2019-02-18T13:58:21.478Z,8.63
2019-02-18T14:00:50.464Z,8.20
2019-02-18T14:03:19.256Z,9.27
2019-02-18T14:05:48.034Z,10.27
2019-02-18T14:08:16.857Z,8.10
2019-02-18T14:10:45.740Z,8.33
2019-02-18T14:13:14.748Z,8.53
2019-02-18T14:15:43.872Z,8.30
2019-02-18T14:18:13.304Z,8.83
2019-02-18T14:20:42.324Z,10.33
2019-02-18T14:23:11.337Z,7.60
2019-02-18T14:25:40.222Z,7.43
2019-02-18T14:28:09.160Z,7.50
2019-02-18T14:30:38.161Z,8.20
2019-02-18T14:33:07.100Z,8.40
2019-02-18T14:35:36.360Z,8.93
2019-02-18T14:38:05.275Z,8.20
2019-02-18T14:40:34.716Z,10.50
2019-02-18T14:43:03.787Z,7.20
2019-02-18T14:45:33.156Z,7.83
2019-02-18T14:48:01.953Z,7.80
2019-02-18T14:50:31.468Z,7.77
2019-02-18T14:53:00.456Z,8.20
2019-02-18T14:55:29.712Z,7.03
2019-02-18T14:57:58.676Z,8.27
2019-02-18T15:00:27.716Z,7.80
2019-02-18T15:02:57.689Z,7.17
2019-02-18T15:05:27.420Z,7.40
2019-02-18T15:07:57.131Z,8.17
2019-02-18T15:10:26.142Z,6.60
2019-02-18T15:12:55.000Z,6.47
2019-02-18T15:15:24.080Z,6.77
2019-02-18T15:17:52.956Z,8.90
2019-02-18T15:20:22.404Z,7.50
2019-02-18T15:22:51.337Z,8.33
2019-02-18T15:25:20.288Z,6.90
2019-02-18T15:27:49.368Z,6.07
2019-02-18T15:30:18.537Z,6.73
2019-02-18T15:32:47.498Z,7.17
2019-02-18T15:35:16.765Z,6.40
2019-02-18T15:37:45.707Z,7.10
2019-02-18T15:40:16.796Z,5.50
2019-02-18T15:42:45.777Z,6.43
2019-02-18T15:45:15.352Z,6.60
2019-02-18T15:47:44.165Z,5.90
2019-02-18T15:50:14.269Z,7.43
2019-02-18T15:52:43.180Z,6.20
2019-02-18T15:55:12.551Z,8.17
2019-02-18T15:57:41.770Z,6.63
2019-02-18T16:00:16.564Z,8.10
2019-02-18T16:02:45.928Z,5.67
2019-02-18T16:05:15.036Z,6.03
2019-02-18T16:07:44.103Z,6.40
2019-02-18T16:10:13.104Z,6.77
2019-02-18T16:12:50.210Z,6.17
2019-02-18T16:15:13.741Z,5.87
2019-02-18T16:17:43.280Z,6.40
2019-02-18T16:20:12.488Z,5.90
2019-02-18T16:22:41.451Z,8.93
2019-02-18T16:25:13.261Z,7.23
2019-02-18T16:27:42.204Z,8.30
2019-02-18T16:30:13.194Z,8.20
2019-02-18T16:32:42.388Z,10.83
2019-02-18T16:35:11.759Z,7.07
2019-02-18T16:37:41.268Z,9.27
2019-02-18T16:40:12.494Z,6.53
2019-02-18T16:42:41.559Z,6.97
2019-02-18T16:45:11.744Z,8.00
2019-02-18T16:47:40.712Z,8.80
2019-02-18T16:50:10.101Z,7.73
2019-02-18T16:52:39.072Z,9.07
2019-02-18T16:55:09.292Z,7.77
2019-02-18T16:57:38.296Z,7.10
2019-02-18T17:00:17.482Z,8.97
2019-02-18T17:02:46.560Z,9.23
2019-02-18T17:05:15.569Z,9.93
2019-02-18T17:07:44.851Z,13.10
2019-02-18T17:10:14.338Z,10.50
2019-02-18T17:12:43.280Z,9.50
2019-02-18T17:15:12.560Z,11.60
2019-02-18T17:17:41.404Z,8.07
2019-02-18T17:20:11.237Z,11.73
2019-02-18T17:22:40.212Z,10.80
2019-02-18T17:25:09.296Z,13.20
2019-02-18T17:27:38.635Z,8.93
2019-02-18T17:30:09.510Z,9.80
2019-02-18T17:32:38.392Z,11.33
2019-02-18T17:35:09.116Z,9.63
2019-02-18T17:37:38.076Z,11.20
2019-02-18T17:40:08.385Z,12.50
2019-02-18T17:42:37.392Z,15.60
2019-02-18T17:45:08.168Z,23.10
2019-02-18T17:47:36.958Z,37.80
2019-02-18T17:50:07.498Z,48.07
2019-02-18T17:52:36.400Z,27.07
2019-02-18T17:55:05.685Z,17.33
2019-02-18T17:57:34.593Z,17.10
2019-02-18T18:00:03.735Z,13.57
2019-02-18T18:02:32.676Z,12.43
2019-02-18T18:05:01.506Z,12.90
2019-02-18T18:07:30.480Z,11.10
2019-02-18T18:09:59.264Z,17.47
2019-02-18T18:12:28.136Z,17.63
2019-02-18T18:14:57.376Z,17.57
2019-02-18T18:17:26.465Z,17.60
2019-02-18T18:19:55.356Z,15.70
2019-02-18T18:22:24.223Z,18.93
2019-02-18T18:24:53.059Z,15.67
2019-02-18T18:27:22.248Z,15.87
2019-02-18T18:29:51.760Z,13.67
2019-02-18T18:32:20.952Z,12.57
2019-02-18T18:34:50.049Z,15.23
2019-02-18T18:37:19.040Z,11.63
2019-02-18T18:39:47.982Z,10.93
2019-02-18T18:42:17.031Z,10.27
2019-02-18T18:44:46.605Z,12.43
2019-02-18T18:47:15.706Z,11.53
2019-02-18T18:49:44.937Z,11.33
2019-02-18T18:52:14.124Z,13.90
2019-02-18T18:54:44.768Z,14.00
2019-02-18T18:57:13.660Z,15.67
2019-02-18T18:59:42.845Z,15.83
2019-02-18T19:02:12.170Z,13.03
2019-02-18T19:04:41.067Z,13.20
2019-02-18T19:07:10.037Z,12.93
2019-02-18T19:09:38.943Z,12.60
2019-02-18T19:12:07.966Z,12.10
2019-02-18T19:14:36.796Z,13.53
2019-02-18T19:17:05.799Z,12.13
2019-02-18T19:19:34.821Z,10.90
2019-02-18T19:22:04.281Z,10.60
2019-02-18T19:24:33.256Z,12.70
2019-02-18T19:27:02.637Z,12.17
2019-02-18T19:29:31.622Z,14.87
2019-02-18T19:32:00.674Z,14.03
2019-02-18T19:34:29.616Z,15.53
2019-02-18T19:36:58.527Z,20.10
2019-02-18T19:39:27.429Z,20.57
2019-02-18T19:41:56.612Z,23.93
2019-02-18T19:44:25.760Z,25.13
2019-02-18T19:46:54.540Z,31.50
2019-02-18T19:49:23.514Z,25.77
2019-02-18T19:51:52.585Z,32.80
2019-02-18T19:54:21.610Z,27.13
2019-02-18T19:56:51.191Z,20.63
2019-02-18T19:59:20.273Z,23.60
2019-02-18T20:01:49.106Z,21.80
2019-02-18T20:04:17.897Z,22.37
2019-02-18T20:06:46.859Z,17.17
2019-02-18T20:09:15.997Z,17.40
2019-02-18T20:11:45.260Z,21.20
2019-02-18T20:14:14.218Z,17.70
2019-02-18T20:16:43.217Z,22.80
2019-02-18T20:19:12.100Z,22.00
2019-02-18T20:21:41.111Z,17.93
2019-02-18T20:24:10.196Z,15.73
2019-02-18T20:26:39.454Z,14.80
2019-02-18T20:29:08.275Z,29.40
2019-02-18T20:31:37.189Z,17.77
2019-02-18T20:34:06.056Z,15.57
2019-02-18T20:36:34.957Z,14.40
2019-02-18T20:39:04.934Z,14.30
2019-02-18T20:41:34.172Z,19.53
2019-02-18T20:44:07.435Z,18.27
2019-02-18T20:46:33.958Z,17.37
2019-02-18T20:49:02.985Z,14.73
2019-02-18T20:51:31.967Z,14.80
2019-02-18T20:54:00.851Z,15.60
2019-02-18T20:56:30.009Z,16.80
2019-02-18T20:58:59.232Z,21.60
2019-02-18T21:01:28.044Z,22.80
2019-02-18T21:03:56.995Z,19.80
2019-02-18T21:06:25.987Z,17.50
2019-02-18T21:08:54.891Z,15.57
2019-02-18T21:11:24.016Z,14.53
2019-02-18T21:13:52.864Z,14.87
2019-02-18T21:16:21.892Z,14.33
2019-02-18T21:18:50.877Z,14.27
2019-02-18T21:21:19.884Z,15.00
2019-02-18T21:23:48.984Z,14.40
2019-02-18T21:26:17.940Z,13.03
2019-02-18T21:28:46.875Z,15.33
2019-02-18T21:31:15.742Z,14.03
2019-02-18T21:33:44.781Z,13.77
2019-02-18T21:36:13.924Z,13.23
2019-02-18T21:38:42.724Z,17.77
2019-02-18T21:41:12.012Z,16.00
2019-02-18T21:43:41.005Z,19.03
2019-02-18T21:46:09.812Z,17.03
2019-02-18T21:48:38.792Z,17.73
2019-02-18T21:51:07.688Z,18.63
2019-02-18T21:53:36.572Z,12.50
2019-02-18T21:56:06.249Z,16.73
2019-02-18T21:58:35.216Z,15.50
2019-02-18T22:01:04.200Z,16.17
2019-02-18T22:03:33.361Z,15.63
2019-02-18T22:06:02.152Z,16.47
2019-02-18T22:08:31.332Z,15.97
2019-02-18T22:11:00.760Z,16.80
2019-02-18T22:13:29.704Z,16.23
2019-02-18T22:15:58.600Z,17.90
2019-02-18T22:18:27.524Z,15.60
2019-02-18T22:20:56.427Z,16.70
2019-02-18T22:23:25.248Z,15.10
2019-02-18T22:25:54.166Z,15.90
2019-02-18T22:28:23.809Z,16.23
2019-02-18T22:30:52.700Z,18.20
2019-02-18T22:33:21.585Z,16.53
2019-02-18T22:35:50.461Z,15.83
2019-02-18T22:38:19.269Z,16.67
2019-02-18T22:40:48.152Z,17.23
2019-02-18T22:43:16.948Z,18.60
2019-02-18T22:45:45.756Z,17.42
2019-02-18T22:48:14.624Z,15.83
2019-02-18T22:50:43.432Z,15.20
2019-02-18T22:53:12.316Z,15.27
2019-02-18T22:55:41.184Z,15.83
2019-02-18T22:58:09.988Z,15.67
2019-02-18T23:01:01.944Z,14.77
2019-02-18T23:03:30.857Z,13.63
2019-02-18T23:05:59.983Z,15.87
2019-02-18T23:08:28.868Z,15.50
2019-02-18T23:10:58.211Z,15.50
2019-02-18T23:13:27.084Z,16.03
2019-02-18T23:15:56.514Z,14.27
2019-02-18T23:18:25.715Z,14.30
2019-02-18T23:21:23.827Z,13.70
2019-02-18T23:23:53.114Z,11.27
2019-02-18T23:26:22.184Z,13.27
2019-02-18T23:28:51.414Z,13.97
2019-02-18T23:31:20.497Z,12.00
2019-02-18T23:33:49.665Z,12.40
2019-02-18T23:36:18.753Z,13.10
2019-02-18T23:38:47.756Z,11.80
2019-02-18T23:41:16.743Z,12.20
2019-02-18T23:43:45.853Z,12.90
2019-02-18T23:46:14.946Z,12.40
2019-02-18T23:48:44.055Z,14.30
2019-02-18T23:51:13.240Z,13.43
2019-02-18T23:53:42.326Z,12.33
